sensor_id;sensor_type;location;lat;lon;timestamp;pressure;altitude;pressure_sealevel;temperature;humidity
59531;BME280;45349;48.692;8.186;2024-01-30T00:02:13;146984.91;;;3.07;100.00
59531;BME280;45349;48.692;8.186;2024-01-30T00:04:40;146957.66;;;2.96;100.00
59531;BME280;45349;48.692;8.186;2024-01-30T00:07:08;146945.28;;;2.91;100.00
59531;BME280;45349;48.692;8.186;2024-01-30T00:09:35;146953.94;;;2.94;100.00
59531;BME280;45349;48.692;8.186;2024-01-30T00:12:01;146939.06;;;2.88;100.00
59531;BME280;45349;48.692;8.186;2024-01-30T00:14:28;146945.28;;;2.91;100.00
59531;BME280;45349;48.692;8.186;2024-01-30T00:16:55;146960.13;;;2.97;100.00
59531;BME280;45349;48.692;8.186;2024-01-30T00:19:21;146952.72;;;2.94;100.00
59531;BME280;45349;48.692;8.186;2024-01-30T00:21:48;146952.72;;;2.94;100.00
59531;BME280;45349;48.692;8.186;2024-01-30T00:24:17;146937.84;;;2.88;100.00
59531;BME280;45349;48.692;8.186;2024-01-30T00:26:43;146941.53;;;2.89;100.00
59531;BME280;45349;48.692;8.186;2024-01-30T00:29:10;146918.03;;;2.79;100.00
59531;BME280;45349;48.692;8.186;2024-01-30T00:31:37;146919.25;;;2.80;100.00
59531;BME280;45349;48.692;8.186;2024-01-30T00:34:04;146911.81;;;2.77;100.00
59531;BME280;45349;48.692;8.186;2024-01-30T00:36:30;146909.31;;;2.76;100.00
59531;BME280;45349;48.692;8.186;2024-01-30T00:38:57;146913.06;;;2.77;100.00
59531;BME280;45349;48.692;8.186;2024-01-30T00:41:26;146894.47;;;2.70;100.00
59531;BME280;45349;48.692;8.186;2024-01-30T00:43:53;146888.28;;;2.67;100.00
59531;BME280;45349;48.692;8.186;2024-01-30T00:46:19;146873.44;;;2.61;100.00
59531;BME280;45349;48.692;8.186;2024-01-30T00:48:46;146883.34;;;2.65;100.00
59531;BME280;45349;48.692;8.186;2024-01-30T00:51:13;146859.81;;;2.55;100.00
59531;BME280;45349;48.692;8.186;2024-01-30T00:53:40;146852.41;;;2.52;100.00
59531;BME280;45349;48.692;8.186;2024-01-30T00:56:07;146878.38;;;2.63;100.00
59531;BME280;45349;48.692;8.186;2024-01-30T00:58:35;146872.22;;;2.60;100.00
59531;BME280;45349;48.692;8.186;2024-01-30T01:01:01;146864.78;;;2.57;100.00
59531;BME280;45349;48.692;8.186;2024-01-30T01:03:29;146878.38;;;2.63;100.00
59531;BME280;45349;48.692;8.186;2024-01-30T01:05:56;146857.34;;;2.54;100.00
59531;BME280;45349;48.692;8.186;2024-01-30T01:08:22;146841.22;;;2.47;100.00
59531;BME280;45349;48.692;8.186;2024-01-30T01:10:49;146825.16;;;2.41;100.00
59531;BME280;45349;48.692;8.186;2024-01-30T01:13:15;146826.34;;;2.41;100.00
59531;BME280;45349;48.692;8.186;2024-01-30T01:15:43;146812.75;;;2.35;100.00
59531;BME280;45349;48.692;8.186;2024-01-30T01:18:10;146794.16;;;2.28;100.00
59531;BME280;45349;48.692;8.186;2024-01-30T01:20:37;146813.97;;;2.36;100.00
59531;BME280;45349;48.692;8.186;2024-01-30T01:23:03;146796.63;;;2.29;100.00
59531;BME280;45349;48.692;8.186;2024-01-30T01:25:30;146825.16;;;2.41;100.00
59531;BME280;45349;48.692;8.186;2024-01-30T01:27:57;146815.25;;;2.36;100.00
59531;BME280;45349;48.692;8.186;2024-01-30T01:30:24;146816.44;;;2.37;100.00
59531;BME280;45349;48.692;8.186;2024-01-30T01:32:52;146828.84;;;2.42;100.00
59531;BME280;45349;48.692;8.186;2024-01-30T01:35:22;146804.06;;;2.32;100.00
59531;BME280;45349;48.692;8.186;2024-01-30T01:37:50;146800.38;;;2.30;100.00
59531;BME280;45349;48.692;8.186;2024-01-30T01:40:22;146804.06;;;2.32;100.00
59531;BME280;45349;48.692;8.186;2024-01-30T01:42:49;146786.72;;;2.25;100.00
59531;BME280;45349;48.692;8.186;2024-01-30T01:45:16;146776.81;;;2.20;100.00
59531;BME280;45349;48.692;8.186;2024-01-30T01:47:44;146806.53;;;2.33;100.00
59531;BME280;45349;48.692;8.186;2024-01-30T01:50:15;146783.03;;;2.23;100.00
59531;BME280;45349;48.692;8.186;2024-01-30T01:52:44;146791.69;;;2.27;100.00
59531;BME280;45349;48.692;8.186;2024-01-30T01:55:13;146794.16;;;2.28;100.00
59531;BME280;45349;48.692;8.186;2024-01-30T01:57:41;146811.50;;;2.35;100.00
59531;BME280;45349;48.692;8.186;2024-01-30T02:00:09;146783.03;;;2.23;100.00
59531;BME280;45349;48.692;8.186;2024-01-30T02:02:36;146785.53;;;2.24;100.00
59531;BME280;45349;48.692;8.186;2024-01-30T02:05:04;146778.09;;;2.21;100.00
59531;BME280;45349;48.692;8.186;2024-01-30T02:07:32;146764.44;;;2.15;100.00
59531;BME280;45349;48.692;8.186;2024-01-30T02:09:58;146775.63;;;2.20;100.00
59531;BME280;45349;48.692;8.186;2024-01-30T02:12:25;146771.88;;;2.18;100.00
59531;BME280;45349;48.692;8.186;2024-01-30T02:14:51;146789.22;;;2.26;100.00
59531;BME280;45349;48.692;8.186;2024-01-30T02:17:18;146776.81;;;2.20;100.00
59531;BME280;45349;48.692;8.186;2024-01-30T02:19:45;146764.44;;;2.15;100.00
59531;BME280;45349;48.692;8.186;2024-01-30T02:22:13;146753.31;;;2.11;100.00
59531;BME280;45349;48.692;8.186;2024-01-30T02:24:40;146750.84;;;2.10;100.00
59531;BME280;45349;48.692;8.186;2024-01-30T02:27:07;146757.00;;;2.12;100.00
59531;BME280;45349;48.692;8.186;2024-01-30T02:29:34;146733.50;;;2.02;100.00
59531;BME280;45349;48.692;8.186;2024-01-30T02:32:00;146753.31;;;2.11;100.00
59531;BME280;45349;48.692;8.186;2024-01-30T02:34:27;146738.47;;;2.04;100.00
59531;BME280;45349;48.692;8.186;2024-01-30T02:36:54;146727.34;;;2.00;100.00
59531;BME280;45349;48.692;8.186;2024-01-30T02:39:22;146743.41;;;2.06;100.00
59531;BME280;45349;48.692;8.186;2024-01-30T02:41:48;146728.56;;;2.00;100.00
59531;BME280;45349;48.692;8.186;2024-01-30T02:44:15;146718.66;;;1.96;100.00
59531;BME280;45349;48.692;8.186;2024-01-30T02:46:42;146719.91;;;1.97;100.00
59531;BME280;45349;48.692;8.186;2024-01-30T02:49:08;146721.13;;;1.97;100.00
59531;BME280;45349;48.692;8.186;2024-01-30T02:51:35;146736.00;;;2.03;100.00
59531;BME280;45349;48.692;8.186;2024-01-30T02:54:01;146742.19;;;2.06;100.00
59531;BME280;45349;48.692;8.186;2024-01-30T02:56:29;146736.00;;;2.03;100.00
59531;BME280;45349;48.692;8.186;2024-01-30T02:58:56;146722.38;;;1.98;100.00
59531;BME280;45349;48.692;8.186;2024-01-30T03:01:23;146739.72;;;2.05;100.00
59531;BME280;45349;48.692;8.186;2024-01-30T03:03:50;146753.31;;;2.11;100.00
59531;BME280;45349;48.692;8.186;2024-01-30T03:06:17;146738.47;;;2.04;100.00
59531;BME280;45349;48.692;8.186;2024-01-30T03:08:45;146740.94;;;2.05;100.00
59531;BME280;45349;48.692;8.186;2024-01-30T03:11:12;146742.19;;;2.06;100.00
59531;BME280;45349;48.692;8.186;2024-01-30T03:13:40;146722.38;;;1.98;100.00
59531;BME280;45349;48.692;8.186;2024-01-30T03:16:08;146722.38;;;1.98;100.00
59531;BME280;45349;48.692;8.186;2024-01-30T03:18:34;146700.09;;;1.88;100.00
59531;BME280;45349;48.692;8.186;2024-01-30T03:21:01;146710.00;;;1.92;100.00
59531;BME280;45349;48.692;8.186;2024-01-30T03:23:30;146702.59;;;1.89;100.00
59531;BME280;45349;48.692;8.186;2024-01-30T03:25:57;146697.63;;;1.87;100.00
59531;BME280;45349;48.692;8.186;2024-01-30T03:28:24;146686.47;;;1.83;100.00
59531;BME280;45349;48.692;8.186;2024-01-30T03:30:52;146679.03;;;1.80;100.00
59531;BME280;45349;48.692;8.186;2024-01-30T03:33:18;146697.63;;;1.87;100.00
59531;BME280;45349;48.692;8.186;2024-01-30T03:35:45;146677.81;;;1.79;100.00
59531;BME280;45349;48.692;8.186;2024-01-30T03:38:12;146662.97;;;1.73;100.00
59531;BME280;45349;48.692;8.186;2024-01-30T03:40:38;146677.81;;;1.79;100.00
59531;BME280;45349;48.692;8.186;2024-01-30T03:43:05;146695.16;;;1.86;100.00
59531;BME280;45349;48.692;8.186;2024-01-30T03:45:31;146706.28;;;1.91;100.00
59531;BME280;45349;48.692;8.186;2024-01-30T03:47:59;146693.91;;;1.86;100.00
59531;BME280;45349;48.692;8.186;2024-01-30T03:50:26;146692.69;;;1.85;100.00
59531;BME280;45349;48.692;8.186;2024-01-30T03:52:53;146695.16;;;1.86;100.00
59531;BME280;45349;48.692;8.186;2024-01-30T03:55:20;146679.03;;;1.80;100.00
59531;BME280;45349;48.692;8.186;2024-01-30T03:57:46;146661.72;;;1.72;100.00
59531;BME280;45349;48.692;8.186;2024-01-30T04:00:14;146676.56;;;1.79;100.00
59531;BME280;45349;48.692;8.186;2024-01-30T04:02:41;146677.81;;;1.79;100.00
59531;BME280;45349;48.692;8.186;2024-01-30T04:05:09;146679.03;;;1.80;100.00
59531;BME280;45349;48.692;8.186;2024-01-30T04:07:35;146692.69;;;1.85;100.00
59531;BME280;45349;48.692;8.186;2024-01-30T04:10:03;146670.41;;;1.76;100.00
59531;BME280;45349;48.692;8.186;2024-01-30T04:12:31;146674.09;;;1.77;100.00
59531;BME280;45349;48.692;8.186;2024-01-30T04:14:57;146691.41;;;1.85;100.00
59531;BME280;45349;48.692;8.186;2024-01-30T04:17:24;146682.78;;;1.81;100.00
59531;BME280;45349;48.692;8.186;2024-01-30T04:19:50;146705.06;;;1.90;100.00
59531;BME280;45349;48.692;8.186;2024-01-30T04:22:18;146690.22;;;1.84;100.00
59531;BME280;45349;48.692;8.186;2024-01-30T04:24:45;146688.94;;;1.84;100.00
59531;BME280;45349;48.692;8.186;2024-01-30T04:27:12;146698.84;;;1.88;100.00
59531;BME280;45349;48.692;8.186;2024-01-30T04:29:38;146700.09;;;1.88;100.00
59531;BME280;45349;48.692;8.186;2024-01-30T04:32:06;146729.81;;;2.01;100.00
59531;BME280;45349;48.692;8.186;2024-01-30T04:34:32;146768.19;;;2.17;100.00
59531;BME280;45349;48.692;8.186;2024-01-30T04:36:59;146742.19;;;2.06;100.00
59531;BME280;45349;48.692;8.186;2024-01-30T04:39:27;146776.81;;;2.20;100.00
59531;BME280;45349;48.692;8.186;2024-01-30T04:41:53;146754.59;;;2.11;100.00
59531;BME280;45349;48.692;8.186;2024-01-30T04:44:20;146754.59;;;2.11;100.00
59531;BME280;45349;48.692;8.186;2024-01-30T04:46:47;146765.72;;;2.16;100.00
59531;BME280;45349;48.692;8.186;2024-01-30T04:49:13;146758.28;;;2.13;100.00
59531;BME280;45349;48.692;8.186;2024-01-30T04:51:40;146744.69;;;2.07;100.00
59531;BME280;45349;48.692;8.186;2024-01-30T04:54:06;146774.34;;;2.19;100.00
59531;BME280;45349;48.692;8.186;2024-01-30T04:56:34;146800.38;;;2.30;100.00
59531;BME280;45349;48.692;8.186;2024-01-30T04:59:02;146791.69;;;2.27;100.00
59531;BME280;45349;48.692;8.186;2024-01-30T05:01:28;146784.25;;;2.24;100.00
59531;BME280;45349;48.692;8.186;2024-01-30T05:03:55;146779.31;;;2.21;100.00
59531;BME280;45349;48.692;8.186;2024-01-30T05:06:25;146774.34;;;2.19;100.00
59531;BME280;45349;48.692;8.186;2024-01-30T05:08:51;146763.22;;;2.15;100.00
59531;BME280;45349;48.692;8.186;2024-01-30T05:11:18;146760.75;;;2.14;100.00
59531;BME280;45349;48.692;8.186;2024-01-30T05:13:46;146789.22;;;2.26;100.00
59531;BME280;45349;48.692;8.186;2024-01-30T05:16:13;146786.72;;;2.25;100.00
59531;BME280;45349;48.692;8.186;2024-01-30T05:18:40;146800.38;;;2.30;100.00
59531;BME280;45349;48.692;8.186;2024-01-30T05:21:06;146788.00;;;2.25;100.00
59531;BME280;45349;48.692;8.186;2024-01-30T05:23:33;146789.22;;;2.26;100.00
59531;BME280;45349;48.692;8.186;2024-01-30T05:26:00;146792.94;;;2.27;100.00
59531;BME280;45349;48.692;8.186;2024-01-30T05:28:30;146778.09;;;2.21;100.00
59531;BME280;45349;48.692;8.186;2024-01-30T05:30:58;146802.84;;;2.31;100.00
59531;BME280;45349;48.692;8.186;2024-01-30T05:33:27;146788.00;;;2.25;100.00
59531;BME280;45349;48.692;8.186;2024-01-30T05:35:54;146800.38;;;2.30;100.00
59531;BME280;45349;48.692;8.186;2024-01-30T05:38:21;146813.97;;;2.36;100.00
59531;BME280;45349;48.692;8.186;2024-01-30T05:40:47;146806.53;;;2.33;100.00
59531;BME280;45349;48.692;8.186;2024-01-30T05:43:14;146807.81;;;2.33;100.00
59531;BME280;45349;48.692;8.186;2024-01-30T05:45:41;146799.13;;;2.30;100.00
59531;BME280;45349;48.692;8.186;2024-01-30T05:48:09;146788.00;;;2.25;100.00
59531;BME280;45349;48.692;8.186;2024-01-30T05:50:35;146784.25;;;2.24;100.00
59531;BME280;45349;48.692;8.186;2024-01-30T05:53:02;146801.59;;;2.31;100.00
59531;BME280;45349;48.692;8.186;2024-01-30T05:55:29;146800.38;;;2.30;100.00
59531;BME280;45349;48.692;8.186;2024-01-30T05:57:55;146791.69;;;2.27;100.00
59531;BME280;45349;48.692;8.186;2024-01-30T06:00:22;146817.72;;;2.38;100.00
59531;BME280;45349;48.692;8.186;2024-01-30T06:02:48;146815.25;;;2.36;100.00
59531;BME280;45349;48.692;8.186;2024-01-30T06:05:16;146820.19;;;2.39;100.00
59531;BME280;45349;48.692;8.186;2024-01-30T06:07:43;146801.59;;;2.31;100.00
59531;BME280;45349;48.692;8.186;2024-01-30T06:10:10;146817.72;;;2.38;100.00
59531;BME280;45349;48.692;8.186;2024-01-30T06:12:37;146796.63;;;2.29;100.00
59531;BME280;45349;48.692;8.186;2024-01-30T06:15:04;146835.06;;;2.45;100.00
59531;BME280;45349;48.692;8.186;2024-01-30T06:17:32;146826.34;;;2.41;100.00
59531;BME280;45349;48.692;8.186;2024-01-30T06:19:58;146837.53;;;2.46;100.00
59531;BME280;45349;48.692;8.186;2024-01-30T06:22:27;146858.56;;;2.55;100.00
59531;BME280;45349;48.692;8.186;2024-01-30T06:24:53;146857.34;;;2.54;100.00
59531;BME280;45349;48.692;8.186;2024-01-30T06:27:20;146821.41;;;2.39;100.00
59531;BME280;45349;48.692;8.186;2024-01-30T06:29:46;146817.72;;;2.38;100.00
59531;BME280;45349;48.692;8.186;2024-01-30T06:32:13;146866.00;;;2.58;100.00
59531;BME280;45349;48.692;8.186;2024-01-30T06:34:40;146866.00;;;2.58;100.00
59531;BME280;45349;48.692;8.186;2024-01-30T06:37:09;146848.66;;;2.50;100.00
59531;BME280;45349;48.692;8.186;2024-01-30T06:39:37;146864.78;;;2.57;100.00
59531;BME280;45349;48.692;8.186;2024-01-30T06:42:04;146891.97;;;2.69;100.00
59531;BME280;45349;48.692;8.186;2024-01-30T06:44:31;146903.16;;;2.73;100.00
59531;BME280;45349;48.692;8.186;2024-01-30T06:46:57;146882.13;;;2.64;100.00
59531;BME280;45349;48.692;8.186;2024-01-30T06:49:24;146911.81;;;2.77;100.00
59531;BME280;45349;48.692;8.186;2024-01-30T06:51:51;146903.16;;;2.73;100.00
59531;BME280;45349;48.692;8.186;2024-01-30T06:54:18;146879.63;;;2.63;100.00
59531;BME280;45349;48.692;8.186;2024-01-30T06:56:45;146869.72;;;2.59;100.00
59531;BME280;45349;48.692;8.186;2024-01-30T06:59:12;146875.91;;;2.62;100.00
59531;BME280;45349;48.692;8.186;2024-01-30T07:01:39;146934.09;;;2.86;100.00
59531;BME280;45349;48.692;8.186;2024-01-30T07:04:05;146914.28;;;2.78;100.00
59531;BME280;45349;48.692;8.186;2024-01-30T07:06:32;146972.53;;;3.02;100.00
59531;BME280;45349;48.692;8.186;2024-01-30T07:08:59;146960.13;;;2.97;100.00
59531;BME280;45349;48.692;8.186;2024-01-30T07:11:25;146956.41;;;2.95;100.00
59531;BME280;45349;48.692;8.186;2024-01-30T07:13:55;146972.53;;;3.02;100.00
59531;BME280;45349;48.692;8.186;2024-01-30T07:16:22;146955.19;;;2.95;100.00
59531;BME280;45349;48.692;8.186;2024-01-30T07:18:48;146957.66;;;2.96;100.00
59531;BME280;45349;48.692;8.186;2024-01-30T07:21:15;146965.09;;;2.99;100.00
59531;BME280;45349;48.692;8.186;2024-01-30T07:23:42;146960.13;;;2.97;100.00
59531;BME280;45349;48.692;8.186;2024-01-30T07:26:09;146947.75;;;2.92;100.00
59531;BME280;45349;48.692;8.186;2024-01-30T07:28:35;146950.22;;;2.93;100.00
59531;BME280;45349;48.692;8.186;2024-01-30T07:31:04;146957.66;;;2.96;100.00
59531;BME280;45349;48.692;8.186;2024-01-30T07:33:31;146946.50;;;2.91;100.00
59531;BME280;45349;48.692;8.186;2024-01-30T07:35:58;146950.22;;;2.93;100.00
59531;BME280;45349;48.692;8.186;2024-01-30T07:38:31;146935.38;;;2.87;100.00
59531;BME280;45349;48.692;8.186;2024-01-30T07:40:58;146929.16;;;2.84;100.00
59531;BME280;45349;48.692;8.186;2024-01-30T07:43:27;146918.03;;;2.79;100.00
59531;BME280;45349;48.692;8.186;2024-01-30T07:45:54;146911.81;;;2.77;100.00
59531;BME280;45349;48.692;8.186;2024-01-30T07:48:22;146914.28;;;2.78;100.00
59531;BME280;45349;48.692;8.186;2024-01-30T07:50:49;146913.06;;;2.77;100.00
59531;BME280;45349;48.692;8.186;2024-01-30T07:53:15;146913.06;;;2.77;100.00
59531;BME280;45349;48.692;8.186;2024-01-30T07:55:42;146921.72;;;2.81;100.00
59531;BME280;45349;48.692;8.186;2024-01-30T07:58:12;146929.16;;;2.84;100.00
59531;BME280;45349;48.692;8.186;2024-01-30T08:00:39;146932.88;;;2.86;100.00
59531;BME280;45349;48.692;8.186;2024-01-30T08:03:06;146955.19;;;2.95;100.00
59531;BME280;45349;48.692;8.186;2024-01-30T08:05:34;146967.56;;;3.00;100.00
59531;BME280;45349;48.692;8.186;2024-01-30T08:08:00;146979.97;;;3.05;100.00
59531;BME280;45349;48.692;8.186;2024-01-30T08:10:27;146994.84;;;3.12;100.00
59531;BME280;45349;48.692;8.186;2024-01-30T08:12:53;147019.56;;;3.22;100.00
59531;BME280;45349;48.692;8.186;2024-01-30T08:15:20;147025.78;;;3.24;100.00
59531;BME280;45349;48.692;8.186;2024-01-30T08:17:47;147023.31;;;3.23;100.00
59531;BME280;45349;48.692;8.186;2024-01-30T08:20:13;147035.72;;;3.29;100.00
59531;BME280;45349;48.692;8.186;2024-01-30T08:22:41;147049.31;;;3.34;100.00
59531;BME280;45349;48.692;8.186;2024-01-30T08:25:08;147064.19;;;3.40;100.00
59531;BME280;45349;48.692;8.186;2024-01-30T08:27:36;147093.94;;;3.53;100.00
59531;BME280;45349;48.692;8.186;2024-01-30T08:30:05;147103.84;;;3.57;100.00
59531;BME280;45349;48.692;8.186;2024-01-30T08:32:32;147113.75;;;3.61;100.00
59531;BME280;45349;48.692;8.186;2024-01-30T08:34:59;147131.13;;;3.68;100.00
59531;BME280;45349;48.692;8.186;2024-01-30T08:37:29;147143.50;;;3.74;100.00
59531;BME280;45349;48.692;8.186;2024-01-30T08:39:57;147167.03;;;3.83;100.00
59531;BME280;45349;48.692;8.186;2024-01-30T08:42:23;147175.75;;;3.87;100.00
59531;BME280;45349;48.692;8.186;2024-01-30T08:44:51;147193.09;;;3.94;100.00
59531;BME280;45349;48.692;8.186;2024-01-30T08:47:18;147230.31;;;4.10;100.00
59531;BME280;45349;48.692;8.186;2024-01-30T08:49:45;147253.84;;;4.20;100.00
59531;BME280;45349;48.692;8.186;2024-01-30T08:52:11;147283.59;;;4.32;100.00
59531;BME280;45349;48.692;8.186;2024-01-30T08:54:38;147284.81;;;4.33;100.00
59531;BME280;45349;48.692;8.186;2024-01-30T08:57:06;147313.38;;;4.45;100.00
59531;BME280;45349;48.692;8.186;2024-01-30T08:59:33;147339.41;;;4.55;100.00
59531;BME280;45349;48.692;8.186;2024-01-30T09:02:00;147343.13;;;4.57;100.00
59531;BME280;45349;48.692;8.186;2024-01-30T09:04:26;147355.53;;;4.62;100.00
59531;BME280;45349;48.692;8.186;2024-01-30T09:06:53;147393.97;;;4.78;100.00
59531;BME280;45349;48.692;8.186;2024-01-30T09:09:20;147424.97;;;4.91;100.00
59531;BME280;45349;48.692;8.186;2024-01-30T09:11:47;147428.72;;;4.93;100.00
59531;BME280;45349;48.692;8.186;2024-01-30T09:14:15;147464.69;;;5.08;100.00
59531;BME280;45349;48.692;8.186;2024-01-30T09:16:41;147504.38;;;5.24;100.00
59531;BME280;45349;48.692;8.186;2024-01-30T09:19:08;147534.16;;;5.37;100.00
59531;BME280;45349;48.692;8.186;2024-01-30T09:21:34;147560.22;;;5.47;100.00
59531;BME280;45349;48.692;8.186;2024-01-30T09:24:02;147604.91;;;5.66;100.00
59531;BME280;45349;48.692;8.186;2024-01-30T09:26:28;147598.72;;;5.64;100.00
59531;BME280;45349;48.692;8.186;2024-01-30T09:28:55;147643.41;;;5.82;100.00
59531;BME280;45349;48.692;8.186;2024-01-30T09:31:23;147674.44;;;5.95;99.43
59531;BME280;45349;48.692;8.186;2024-01-30T09:33:50;147706.75;;;6.09;97.31
59531;BME280;45349;48.692;8.186;2024-01-30T09:36:19;147742.75;;;6.24;97.24
59531;BME280;45349;48.692;8.186;2024-01-30T09:38:45;147766.38;;;6.33;96.86
59531;BME280;45349;48.692;8.186;2024-01-30T09:41:12;147766.38;;;6.33;97.78
59531;BME280;45349;48.692;8.186;2024-01-30T09:43:39;147807.31;;;6.50;97.48
59531;BME280;45349;48.692;8.186;2024-01-30T09:46:08;147823.47;;;6.57;94.63
59531;BME280;45349;48.692;8.186;2024-01-30T09:48:40;147814.78;;;6.54;89.42
59531;BME280;45349;48.692;8.186;2024-01-30T09:51:08;147833.38;;;6.61;89.53
59531;BME280;45349;48.692;8.186;2024-01-30T09:56:52;147812.28;;;6.53;87.73
59531;BME280;45349;48.692;8.186;2024-01-30T09:59:18;147863.19;;;6.74;87.96
59531;BME280;45349;48.692;8.186;2024-01-30T10:01:45;147891.81;;;6.86;87.88
59531;BME280;45349;48.692;8.186;2024-01-30T10:04:13;147938.97;;;7.05;85.11
59531;BME280;45349;48.692;8.186;2024-01-30T10:06:40;147966.31;;;7.17;87.98
59531;BME280;45349;48.692;8.186;2024-01-30T10:09:07;147994.91;;;7.29;87.80
59531;BME280;45349;48.692;8.186;2024-01-30T10:11:33;147994.91;;;7.29;89.06
59531;BME280;45349;48.692;8.186;2024-01-30T10:14:00;148043.38;;;7.49;90.02
59531;BME280;45349;48.692;8.186;2024-01-30T10:16:27;148064.47;;;7.58;90.89
59531;BME280;45349;48.692;8.186;2024-01-30T10:18:54;148073.19;;;7.61;89.88
59531;BME280;45349;48.692;8.186;2024-01-30T10:21:22;148090.59;;;7.68;89.01
59531;BME280;45349;48.692;8.186;2024-01-30T10:23:50;148122.94;;;7.82;87.51
59531;BME280;45349;48.692;8.186;2024-01-30T10:26:16;148150.28;;;7.93;85.36
59531;BME280;45349;48.692;8.186;2024-01-30T10:28:43;148155.19;;;7.95;85.51
59531;BME280;45349;48.692;8.186;2024-01-30T10:31:10;148149.00;;;7.93;85.41
59531;BME280;45349;48.692;8.186;2024-01-30T10:33:37;148080.66;;;7.64;84.48
59531;BME280;45349;48.692;8.186;2024-01-30T10:36:04;148066.97;;;7.59;84.67
59531;BME280;45349;48.692;8.186;2024-01-30T10:38:33;148100.56;;;7.73;82.40
59531;BME280;45349;48.692;8.186;2024-01-30T10:41:01;148104.25;;;7.74;82.63
59531;BME280;45349;48.692;8.186;2024-01-30T10:43:31;148101.75;;;7.73;84.96
59531;BME280;45349;48.692;8.186;2024-01-30T10:46:06;148105.53;;;7.75;83.37
59531;BME280;45349;48.692;8.186;2024-01-30T10:48:36;148141.56;;;7.90;84.10
59531;BME280;45349;48.692;8.186;2024-01-30T10:51:09;148168.91;;;8.01;86.34
59531;BME280;45349;48.692;8.186;2024-01-30T10:53:39;148192.50;;;8.11;86.76
59531;BME280;45349;48.692;8.186;2024-01-30T10:56:06;148188.81;;;8.09;85.72
59531;BME280;45349;48.692;8.186;2024-01-30T10:58:34;148160.19;;;7.97;87.61
59531;BME280;45349;48.692;8.186;2024-01-30T11:01:01;148191.28;;;8.10;87.11
59531;BME280;45349;48.692;8.186;2024-01-30T11:03:30;148223.63;;;8.24;88.27
59531;BME280;45349;48.692;8.186;2024-01-30T11:06:00;148243.53;;;8.32;87.39
59531;BME280;45349;48.692;8.186;2024-01-30T11:08:32;148262.16;;;8.40;86.80
59531;BME280;45349;48.692;8.186;2024-01-30T11:11:00;148285.81;;;8.50;85.46
59531;BME280;45349;48.692;8.186;2024-01-30T11:13:30;148314.44;;;8.62;85.26
59531;BME280;45349;48.692;8.186;2024-01-30T11:16:00;148329.38;;;8.68;87.02
59531;BME280;45349;48.692;8.186;2024-01-30T11:18:31;148344.28;;;8.74;86.09
59531;BME280;45349;48.692;8.186;2024-01-30T11:20:58;148361.72;;;8.81;84.49
59531;BME280;45349;48.692;8.186;2024-01-30T11:23:30;148407.72;;;9.00;85.42
59531;BME280;45349;48.692;8.186;2024-01-30T11:25:57;148450.03;;;9.18;83.40
59531;BME280;45349;48.692;8.186;2024-01-30T11:28:32;148491.06;;;9.35;84.40
59531;BME280;45349;48.692;8.186;2024-01-30T11:31:03;148507.28;;;9.42;81.08
59531;BME280;45349;48.692;8.186;2024-01-30T11:33:30;148525.94;;;9.50;82.34
59531;BME280;45349;48.692;8.186;2024-01-30T11:35:57;148550.81;;;9.60;81.11
59531;BME280;45349;48.692;8.186;2024-01-30T11:38:27;148596.84;;;9.79;81.49
59531;BME280;45349;48.692;8.186;2024-01-30T11:40:54;148645.44;;;9.99;78.03
59531;BME280;45349;48.692;8.186;2024-01-30T11:43:22;148664.09;;;10.07;77.76
59531;BME280;45349;48.692;8.186;2024-01-30T11:45:50;148609.31;;;9.84;77.61
59531;BME280;45349;48.692;8.186;2024-01-30T11:48:17;148684.00;;;10.15;78.25
59531;BME280;45349;48.692;8.186;2024-01-30T11:50:44;148716.38;;;10.29;77.01
59531;BME280;45349;48.692;8.186;2024-01-30T11:53:11;148764.97;;;10.49;74.65
59531;BME280;45349;48.692;8.186;2024-01-30T11:55:37;148756.28;;;10.45;74.79
59531;BME280;45349;48.692;8.186;2024-01-30T11:58:04;148763.75;;;10.48;72.30
59531;BME280;45349;48.692;8.186;2024-01-30T12:00:31;148700.19;;;10.22;75.74
59531;BME280;45349;48.692;8.186;2024-01-30T12:03:00;148717.59;;;10.29;76.32
59531;BME280;45349;48.692;8.186;2024-01-30T12:05:27;148710.13;;;10.26;75.29
59531;BME280;45349;48.692;8.186;2024-01-30T12:07:54;148686.50;;;10.16;75.67
59531;BME280;45349;48.692;8.186;2024-01-30T12:10:24;148733.81;;;10.36;75.65
59531;BME280;45349;48.692;8.186;2024-01-30T12:12:51;148746.31;;;10.41;75.14
59531;BME280;45349;48.692;8.186;2024-01-30T12:15:18;148788.69;;;10.59;75.16
59531;BME280;45349;48.692;8.186;2024-01-30T12:17:46;148793.59;;;10.61;73.19
59531;BME280;45349;48.692;8.186;2024-01-30T12:20:17;148823.50;;;10.73;72.88
59531;BME280;45349;48.692;8.186;2024-01-30T12:22:45;148853.41;;;10.86;73.06
59531;BME280;45349;48.692;8.186;2024-01-30T12:25:14;148925.66;;;11.16;73.30
59531;BME280;45349;48.692;8.186;2024-01-30T12:27:42;148900.75;;;11.05;71.90
59531;BME280;45349;48.692;8.186;2024-01-30T12:30:10;148919.41;;;11.13;73.96
59531;BME280;45349;48.692;8.186;2024-01-30T12:32:40;148931.88;;;11.18;72.11
59531;BME280;45349;48.692;8.186;2024-01-30T12:35:07;148883.31;;;10.98;71.29
59531;BME280;45349;48.692;8.186;2024-01-30T12:37:35;148895.75;;;11.03;72.00
59531;BME280;45349;48.692;8.186;2024-01-30T12:40:03;148928.16;;;11.17;72.51
59531;BME280;45349;48.692;8.186;2024-01-30T12:42:31;148953.06;;;11.27;71.28
59531;BME280;45349;48.692;8.186;2024-01-30T12:44:58;148986.69;;;11.41;70.63
59531;BME280;45349;48.692;8.186;2024-01-30T12:47:25;148976.72;;;11.37;69.50
59531;BME280;45349;48.692;8.186;2024-01-30T12:49:51;149007.91;;;11.50;68.52
59531;BME280;45349;48.692;8.186;2024-01-30T12:52:20;149024.09;;;11.57;69.39
59531;BME280;45349;48.692;8.186;2024-01-30T12:54:48;149029.06;;;11.59;69.72
59531;BME280;45349;48.692;8.186;2024-01-30T12:57:15;149050.25;;;11.67;71.25